createdAt,value
2023-02-03T17:31:47.342Z,75.64
2023-02-03T17:34:15.046Z,75.78
2023-02-03T17:36:42.721Z,75.11
2023-02-03T17:55:05.169Z,75.90
2023-02-03T17:57:38.003Z,76.12
2023-02-03T18:00:06.503Z,75.96
2023-02-03T18:02:34.215Z,76.15
2023-02-03T18:05:03.000Z,76.17
2023-02-03T18:07:30.710Z,76.62
2023-02-03T18:09:58.381Z,76.64
2023-02-03T18:12:26.127Z,76.92
2023-02-03T18:14:56.251Z,76.91
2023-02-03T18:17:24.749Z,77.05
2023-02-03T18:19:56.292Z,77.73
2023-02-03T18:22:24.120Z,77.36
2023-02-03T18:24:52.285Z,77.56
2023-02-03T18:27:20.164Z,77.63
2023-02-03T18:29:48.905Z,77.75
2023-02-03T18:32:18.712Z,78.03
2023-02-03T18:34:46.491Z,77.74
2023-02-03T18:37:14.662Z,78.19
2023-02-03T18:39:42.312Z,78.38
2023-02-03T18:42:09.979Z,78.02
2023-02-03T18:44:37.704Z,78.42
2023-02-03T18:47:07.730Z,78.59
2023-02-03T18:49:37.453Z,78.38
2023-02-03T18:52:05.796Z,78.43
2023-02-03T18:54:33.467Z,78.67
2023-02-03T18:57:02.889Z,78.80
2023-02-03T18:59:30.649Z,78.83
2023-02-03T19:01:58.418Z,78.56
2023-02-03T19:04:26.241Z,78.76
2023-02-03T19:06:55.319Z,78.43
2023-02-03T19:09:23.736Z,78.52
2023-02-03T19:11:51.508Z,78.74
2023-02-03T19:14:20.195Z,78.32
2023-02-03T19:16:50.331Z,78.37
2023-02-03T19:19:18.087Z,78.13
2023-02-03T19:21:45.789Z,78.27
2023-02-03T19:24:15.291Z,78.00
2023-02-03T19:26:43.053Z,78.16
2023-02-03T19:29:10.783Z,77.93
2023-02-03T19:31:39.025Z,78.23
2023-02-03T19:34:06.789Z,77.93
2023-02-03T19:36:34.413Z,77.97
2023-02-03T19:39:02.045Z,77.71
2023-02-03T19:41:33.730Z,78.39
2023-02-03T19:44:01.341Z,78.33
2023-02-03T19:46:32.577Z,77.92
2023-02-03T19:49:00.320Z,78.28
2023-02-03T19:51:28.001Z,78.40
2023-02-03T19:53:55.739Z,78.53
2023-02-03T19:56:23.397Z,78.30
2023-02-03T19:58:53.778Z,78.33
2023-02-03T20:01:21.760Z,78.39
2023-02-03T20:03:49.487Z,78.58
2023-02-03T20:06:17.885Z,78.58
2023-02-03T20:08:45.615Z,78.82
2023-02-03T20:11:13.414Z,78.86
2023-02-03T20:13:42.131Z,78.93
2023-02-03T20:16:11.310Z,78.82
2023-02-03T20:18:39.395Z,78.84
2023-02-03T20:21:07.143Z,78.93
2023-02-03T20:23:34.817Z,78.84
2023-02-03T20:26:03.083Z,78.81
2023-02-03T20:28:30.895Z,79.07
2023-02-03T20:31:00.794Z,78.97
2023-02-03T20:33:31.377Z,78.86
2023-02-03T20:35:59.819Z,78.70
2023-02-03T20:38:28.474Z,78.87
2023-02-03T20:40:56.211Z,79.02
2023-02-03T20:43:25.339Z,78.73
2023-02-03T20:45:53.520Z,78.93
2023-02-03T20:48:23.995Z,78.71
2023-02-03T20:50:53.468Z,78.90
2023-02-03T20:53:23.022Z,78.89
2023-02-03T20:55:51.215Z,78.90
2023-02-03T20:58:20.207Z,78.94
2023-02-03T21:00:49.521Z,78.78
2023-02-03T21:03:36.558Z,79.06
2023-02-03T21:06:13.934Z,78.85
2023-02-03T21:08:41.622Z,79.23
2023-02-03T21:11:11.951Z,78.86
2023-02-03T21:13:40.576Z,79.07
2023-02-03T21:16:17.434Z,79.04
2023-02-03T21:18:48.469Z,79.38
2023-02-03T21:21:24.784Z,79.24
2023-02-03T21:23:53.755Z,79.35
2023-02-03T21:26:22.498Z,79.39
2023-02-03T21:28:51.444Z,79.50
2023-02-03T21:31:27.385Z,79.39
2023-02-03T21:33:56.057Z,79.53
2023-02-03T21:36:26.584Z,79.50
2023-02-03T21:38:56.291Z,79.76
2023-02-03T21:41:25.664Z,79.72
2023-02-03T21:43:55.726Z,79.59
2023-02-03T21:46:26.556Z,79.41
2023-02-03T21:48:55.424Z,79.67
2023-02-03T21:51:26.703Z,79.58
2023-02-03T21:53:56.305Z,79.71
2023-02-03T21:56:26.245Z,79.74
2023-02-03T21:58:57.579Z,79.76
2023-02-03T22:01:26.111Z,79.50
2023-02-03T22:03:55.089Z,79.91
2023-02-03T22:06:27.031Z,79.84
2023-02-03T22:08:56.150Z,79.90
2023-02-03T22:11:25.196Z,79.59
2023-02-03T22:13:53.208Z,79.71
2023-02-03T22:16:21.041Z,80.04
2023-02-03T22:18:49.507Z,79.73
2023-02-03T22:21:17.795Z,79.82
2023-02-03T22:23:47.632Z,80.08
2023-02-03T22:26:16.539Z,80.07
2023-02-03T22:28:44.850Z,79.96
2023-02-03T22:31:13.271Z,79.81
2023-02-03T22:33:41.967Z,79.99
2023-02-03T22:36:10.599Z,80.49
2023-02-03T22:38:39.705Z,80.41
2023-02-03T22:41:09.050Z,80.27
2023-02-03T22:43:36.684Z,80.50
2023-02-03T22:46:06.234Z,80.24
2023-02-03T22:48:34.062Z,80.63
2023-02-03T22:51:01.789Z,80.60
2023-02-03T22:53:30.015Z,80.38
2023-02-03T22:55:57.874Z,80.51
2023-02-03T22:58:27.093Z,80.73
2023-02-03T23:00:54.823Z,80.18
2023-02-03T23:03:22.686Z,80.49
2023-02-03T23:05:50.489Z,80.38
2023-02-03T23:08:18.240Z,80.78
2023-02-03T23:10:45.948Z,80.52
2023-02-03T23:13:13.625Z,80.39
2023-02-03T23:15:42.745Z,80.53
2023-02-03T23:18:10.405Z,80.46
2023-02-03T23:20:38.106Z,80.59
2023-02-03T23:23:05.814Z,80.89
2023-02-03T23:25:33.482Z,80.59
2023-02-03T23:28:01.301Z,80.91
2023-02-03T23:30:29.512Z,80.74
2023-02-03T23:32:58.776Z,81.02
2023-02-03T23:35:44.245Z,80.81
2023-02-03T23:38:12.067Z,80.91
2023-02-03T23:40:39.733Z,80.78
2023-02-03T23:43:07.445Z,81.00
2023-02-03T23:45:35.083Z,81.26
2023-02-03T23:48:04.391Z,81.01
2023-02-03T23:50:32.483Z,80.95
2023-02-03T23:53:00.329Z,81.11
2023-02-03T23:55:28.011Z,81.35
2023-02-03T23:57:55.928Z,81.20
